createdAt,value
2024-02-28T00:02:04.149Z,1.44
2024-02-28T00:04:30.821Z,1.50
2024-02-28T00:06:57.666Z,1.44
2024-02-28T00:09:24.360Z,1.50
2024-02-28T00:11:51.074Z,1.50
2024-02-28T00:14:17.770Z,1.50
2024-02-28T00:16:46.356Z,1.44
2024-02-28T00:19:13.914Z,1.44
2024-02-28T00:21:43.631Z,1.38
2024-02-28T00:24:10.676Z,1.31
2024-02-28T00:26:42.436Z,1.19
2024-02-28T00:29:09.401Z,1.13
2024-02-28T00:31:36.566Z,1.00
2024-02-28T00:34:03.355Z,0.94
2024-02-28T00:36:36.749Z,0.81
2024-02-28T00:39:11.960Z,0.75
2024-02-28T00:41:38.723Z,0.75
2024-02-28T00:44:05.577Z,0.75
2024-02-28T00:46:32.168Z,0.69
2024-02-28T00:48:58.841Z,0.69
2024-02-28T00:51:25.494Z,0.63
2024-02-28T00:53:52.173Z,0.63
2024-02-28T00:56:18.802Z,0.50
2024-02-28T00:58:46.371Z,0.50
2024-02-28T01:01:13.443Z,0.44
2024-02-28T01:03:40.389Z,0.44
2024-02-28T01:06:07.050Z,0.44
2024-02-28T01:08:33.746Z,0.31
2024-02-28T01:11:00.436Z,0.25
2024-02-28T01:13:27.079Z,0.25
2024-02-28T01:15:53.813Z,0.19
2024-02-28T01:18:20.500Z,0.19
2024-02-28T01:20:47.256Z,0.25
2024-02-28T01:23:13.847Z,0.06
2024-02-28T01:25:40.530Z,0.06
2024-02-28T01:28:07.201Z,0.19
2024-02-28T01:30:33.859Z,0.19
2024-02-28T01:33:01.109Z,0.13
2024-02-28T01:35:27.750Z,0.13
2024-02-28T01:37:54.360Z,0.06
2024-02-28T01:40:20.985Z,0.13
2024-02-28T01:42:47.775Z,0.25
2024-02-28T01:45:15.761Z,0.31
2024-02-28T01:47:43.768Z,0.50
2024-02-28T01:50:11.867Z,0.63
2024-02-28T01:52:40.273Z,0.75
2024-02-28T01:55:07.755Z,0.81
2024-02-28T01:57:36.257Z,0.88
2024-02-28T02:00:05.505Z,0.94
2024-02-28T02:02:32.314Z,0.88
2024-02-28T02:04:59.538Z,0.81
2024-02-28T02:07:26.948Z,0.88
2024-02-28T02:09:54.303Z,0.88
2024-02-28T02:12:21.104Z,0.81
2024-02-28T02:14:50.938Z,1.00
2024-02-28T02:17:17.591Z,0.94
2024-02-28T02:19:45.102Z,1.00
2024-02-28T02:22:14.711Z,0.94
2024-02-28T02:24:41.912Z,1.00
2024-02-28T02:27:08.763Z,1.00
2024-02-28T02:29:35.516Z,1.00
2024-02-28T02:32:02.187Z,0.94
2024-02-28T02:34:28.898Z,1.00
2024-02-28T02:36:55.620Z,0.94
2024-02-28T02:39:22.389Z,1.00
2024-02-28T02:41:49.134Z,1.06
2024-02-28T02:44:15.840Z,0.94
2024-02-28T02:46:42.914Z,0.94
2024-02-28T02:49:09.676Z,0.94
2024-02-28T02:51:36.446Z,0.94
2024-02-28T02:54:03.288Z,0.94
2024-02-28T02:56:29.901Z,0.94
2024-02-28T02:58:56.506Z,0.88
2024-02-28T03:01:23.125Z,0.88
2024-02-28T03:03:49.930Z,0.88
2024-02-28T03:06:16.685Z,0.81
2024-02-28T03:08:43.421Z,0.88
2024-02-28T03:11:10.312Z,0.94
2024-02-28T03:13:37.042Z,0.88
2024-02-28T03:16:07.271Z,0.94
2024-02-28T03:18:34.005Z,0.94
2024-02-28T03:21:00.718Z,0.88
2024-02-28T03:23:27.324Z,0.81
2024-02-28T03:25:53.968Z,0.81
2024-02-28T03:28:20.628Z,0.81
2024-02-28T03:30:47.276Z,0.75
2024-02-28T03:33:13.940Z,0.81
2024-02-28T03:35:40.583Z,0.88
2024-02-28T03:38:07.232Z,0.88
2024-02-28T03:40:34.550Z,0.94
2024-02-28T03:43:01.402Z,0.94
2024-02-28T03:45:30.933Z,0.88
2024-02-28T03:47:57.660Z,0.94
2024-02-28T03:50:24.306Z,0.88
2024-02-28T03:52:50.945Z,1.00
2024-02-28T03:55:17.843Z,1.00
2024-02-28T03:57:48.560Z,0.94
2024-02-28T04:00:15.975Z,1.00
2024-02-28T04:02:43.654Z,1.06
2024-02-28T04:05:10.499Z,1.06
2024-02-28T04:07:37.863Z,1.13
2024-02-28T04:10:06.364Z,1.19
2024-02-28T04:12:34.155Z,1.25
2024-02-28T04:15:01.053Z,1.25
2024-02-28T04:17:27.749Z,1.31
2024-02-28T04:19:54.482Z,1.38
2024-02-28T04:22:21.168Z,1.31
2024-02-28T04:24:47.860Z,1.25
2024-02-28T04:27:14.548Z,1.31
2024-02-28T04:29:41.221Z,1.31
2024-02-28T04:32:07.965Z,1.38
2024-02-28T04:34:34.615Z,1.44
2024-02-28T04:37:01.266Z,1.50
2024-02-28T04:39:27.944Z,1.56
2024-02-28T04:41:54.593Z,1.63
2024-02-28T04:44:21.314Z,1.75
2024-02-28T04:46:47.948Z,1.81
2024-02-28T04:49:14.624Z,1.88
2024-02-28T04:51:41.367Z,1.94
2024-02-28T04:54:07.968Z,1.88
2024-02-28T04:56:34.566Z,1.88
2024-02-28T04:59:01.142Z,1.94
2024-02-28T05:01:29.562Z,1.94
2024-02-28T05:03:56.528Z,1.94
2024-02-28T05:06:23.363Z,2.00
2024-02-28T05:08:50.008Z,2.00
2024-02-28T05:11:16.636Z,2.00
2024-02-28T05:13:43.360Z,2.06
2024-02-28T05:16:14.270Z,2.06
2024-02-28T05:18:40.916Z,2.13
2024-02-28T05:21:07.630Z,2.13
2024-02-28T05:23:35.401Z,2.19
2024-02-28T05:26:05.087Z,2.25
2024-02-28T05:28:34.172Z,2.25
2024-02-28T05:31:03.939Z,2.25
2024-02-28T05:33:30.776Z,2.38
2024-02-28T05:35:57.402Z,2.38
2024-02-28T05:38:24.010Z,2.44
2024-02-28T05:40:50.609Z,2.44
2024-02-28T05:43:17.232Z,2.44
2024-02-28T05:45:43.895Z,2.44
2024-02-28T05:48:10.705Z,2.44
2024-02-28T05:50:37.354Z,2.50
2024-02-28T05:53:04.120Z,2.56
2024-02-28T05:55:30.959Z,2.63
2024-02-28T05:57:57.608Z,2.69
2024-02-28T06:00:24.271Z,2.75
2024-02-28T06:02:50.937Z,2.75
2024-02-28T06:05:17.731Z,2.81
2024-02-28T06:07:44.335Z,2.88
2024-02-28T06:10:11.629Z,2.88
2024-02-28T06:12:38.435Z,2.94
2024-02-28T06:15:06.986Z,2.94
2024-02-28T06:17:33.646Z,2.94
2024-02-28T06:20:00.535Z,3.00
2024-02-28T06:22:27.133Z,3.06
2024-02-28T06:24:53.877Z,3.00
2024-02-28T06:27:20.617Z,3.06
2024-02-28T06:29:47.375Z,3.06
2024-02-28T06:32:13.962Z,3.06
2024-02-28T06:34:40.639Z,3.13
2024-02-28T06:37:07.270Z,3.13
2024-02-28T06:39:33.960Z,3.19
2024-02-28T06:42:00.599Z,3.19
2024-02-28T06:44:27.344Z,3.25
2024-02-28T06:46:53.993Z,3.31
2024-02-28T06:49:20.599Z,3.31
2024-02-28T06:51:47.342Z,3.38
2024-02-28T06:54:14.105Z,3.38
2024-02-28T06:56:40.761Z,3.38
2024-02-28T06:59:08.125Z,3.44
2024-02-28T07:01:35.092Z,3.44
2024-02-28T07:04:02.030Z,3.50
2024-02-28T07:06:28.777Z,3.50
2024-02-28T07:08:55.528Z,3.50
2024-02-28T07:11:25.322Z,3.56
2024-02-28T07:13:51.926Z,3.63
2024-02-28T07:16:18.522Z,3.63
2024-02-28T07:18:45.176Z,3.69
2024-02-28T07:21:11.925Z,3.69
2024-02-28T07:23:42.152Z,3.75
2024-02-28T07:26:16.265Z,3.75
2024-02-28T07:28:52.304Z,3.75
2024-02-28T07:31:20.297Z,3.81
2024-02-28T07:33:47.087Z,3.81
2024-02-28T07:36:13.762Z,3.81
2024-02-28T07:38:43.050Z,3.81
2024-02-28T07:41:09.737Z,3.88
2024-02-28T07:43:39.073Z,3.88
2024-02-28T07:46:10.560Z,3.88
2024-02-28T07:48:37.471Z,3.94
2024-02-28T07:51:08.813Z,3.94
2024-02-28T07:53:35.838Z,4.00
2024-02-28T07:56:02.692Z,4.06
2024-02-28T07:58:29.308Z,4.13
2024-02-28T08:00:56.091Z,4.13
2024-02-28T08:03:24.909Z,4.13
2024-02-28T08:05:51.613Z,4.13
2024-02-28T08:08:18.491Z,4.19
2024-02-28T08:10:47.351Z,4.13
2024-02-28T08:13:14.468Z,4.19
2024-02-28T08:15:41.255Z,4.25
2024-02-28T08:18:08.079Z,4.31
2024-02-28T08:20:34.793Z,4.38
2024-02-28T08:23:01.452Z,4.31
2024-02-28T08:25:28.074Z,4.38
2024-02-28T08:27:54.751Z,4.44
2024-02-28T08:30:21.556Z,4.44
2024-02-28T08:32:48.317Z,4.50
2024-02-28T08:35:15.095Z,4.50
2024-02-28T08:37:41.960Z,4.56
2024-02-28T08:40:09.672Z,4.63
2024-02-28T08:42:36.491Z,4.69
2024-02-28T08:45:07.065Z,4.75
2024-02-28T08:47:34.442Z,4.63
2024-02-28T08:50:01.169Z,4.69
2024-02-28T08:52:27.805Z,4.75
2024-02-28T08:54:54.941Z,4.81
2024-02-28T08:57:23.493Z,4.81
2024-02-28T08:59:53.767Z,4.81
2024-02-28T09:02:20.732Z,4.81
2024-02-28T09:04:52.139Z,4.88
2024-02-28T09:07:22.699Z,4.94
2024-02-28T09:09:50.645Z,5.06
2024-02-28T09:12:17.584Z,5.13
2024-02-28T09:14:45.787Z,5.31
2024-02-28T09:17:12.691Z,5.38
2024-02-28T09:19:39.587Z,5.56
2024-02-28T09:22:06.439Z,5.69
2024-02-28T09:24:34.800Z,5.81
2024-02-28T09:27:01.470Z,5.94
2024-02-28T09:29:28.439Z,6.06
2024-02-28T09:31:55.094Z,6.13
2024-02-28T09:34:21.954Z,6.19
2024-02-28T09:36:51.024Z,6.13
2024-02-28T09:39:18.264Z,6.19
2024-02-28T09:41:45.327Z,6.25
2024-02-28T09:44:13.492Z,6.25
2024-02-28T09:46:40.679Z,6.31
2024-02-28T09:49:08.656Z,6.38
2024-02-28T09:51:36.849Z,6.50
2024-02-28T09:54:07.009Z,6.56
2024-02-28T09:56:34.268Z,6.56
2024-02-28T09:59:04.131Z,6.63
2024-02-28T10:01:31.757Z,6.75
2024-02-28T10:04:02.146Z,6.81
2024-02-28T10:06:28.980Z,6.94
2024-02-28T10:08:55.661Z,6.94
2024-02-28T10:11:23.142Z,7.06
2024-02-28T10:13:50.246Z,7.06
2024-02-28T10:16:17.561Z,7.00
2024-02-28T10:18:45.489Z,7.13
2024-02-28T10:21:16.270Z,7.25
2024-02-28T10:23:43.277Z,7.44
2024-02-28T10:26:11.255Z,7.38
2024-02-28T10:28:43.700Z,7.38
2024-02-28T10:31:11.633Z,7.50
2024-02-28T10:33:38.620Z,7.56
2024-02-28T10:36:06.390Z,7.88
2024-02-28T10:38:39.945Z,7.88
2024-02-28T10:41:09.859Z,8.00
2024-02-28T10:43:40.455Z,7.88
2024-02-28T10:46:26.029Z,7.94
2024-02-28T10:48:56.177Z,8.06
2024-02-28T10:51:28.539Z,8.13
2024-02-28T10:54:14.682Z,8.31
2024-02-28T10:56:43.987Z,8.38
2024-02-28T10:59:12.886Z,8.56
2024-02-28T11:01:46.088Z,8.56
2024-02-28T11:04:16.267Z,8.50
2024-02-28T11:06:58.053Z,8.56
2024-02-28T11:09:31.712Z,8.88
2024-02-28T11:11:58.530Z,8.88
2024-02-28T11:14:28.186Z,8.88
2024-02-28T11:17:03.364Z,8.88
2024-02-28T11:19:35.480Z,8.69
2024-02-28T11:22:06.204Z,8.88
2024-02-28T11:24:35.901Z,8.81
2024-02-28T11:27:06.967Z,8.75
2024-02-28T11:29:33.648Z,8.81
2024-02-28T11:32:00.405Z,8.81
2024-02-28T11:34:27.264Z,8.75
2024-02-28T11:36:56.521Z,8.69
2024-02-28T11:39:26.015Z,8.63
2024-02-28T11:41:54.874Z,8.69
2024-02-28T11:44:21.710Z,8.69
2024-02-28T11:46:51.265Z,8.81
2024-02-28T11:49:19.072Z,8.88
2024-02-28T11:51:46.398Z,8.94
2024-02-28T11:54:16.382Z,9.00
2024-02-28T11:56:43.359Z,9.06
2024-02-28T11:59:12.795Z,9.06
2024-02-28T12:01:42.566Z,9.00
2024-02-28T12:04:11.383Z,8.88
2024-02-28T12:06:39.457Z,8.88
2024-02-28T12:09:18.925Z,9.00
2024-02-28T12:11:51.417Z,9.00
2024-02-28T12:14:18.303Z,9.13
2024-02-28T12:16:47.075Z,9.13
2024-02-28T12:19:14.325Z,9.19
2024-02-28T12:21:41.947Z,9.19
2024-02-28T12:24:10.963Z,9.31
2024-02-28T12:26:38.727Z,9.19
2024-02-28T12:29:05.818Z,9.25
2024-02-28T12:31:32.723Z,9.38
2024-02-28T12:33:59.808Z,9.44
2024-02-28T12:36:27.808Z,9.56
2024-02-28T12:38:54.824Z,9.69
2024-02-28T12:41:21.730Z,9.63
2024-02-28T12:43:48.422Z,9.63
2024-02-28T12:46:15.211Z,9.69
2024-02-28T12:48:42.257Z,9.69
2024-02-28T12:51:14.474Z,9.63
2024-02-28T12:53:41.612Z,9.38
2024-02-28T12:56:08.295Z,9.31
2024-02-28T12:58:34.947Z,9.31
2024-02-28T13:01:02.275Z,9.44
2024-02-28T13:03:29.056Z,9.38
2024-02-28T13:05:55.750Z,9.38
2024-02-28T13:08:22.406Z,9.31
2024-02-28T13:10:49.021Z,9.38
2024-02-28T13:13:15.691Z,9.44
2024-02-28T13:15:42.685Z,9.44
2024-02-28T13:18:14.314Z,9.50
2024-02-28T13:20:41.517Z,9.63
2024-02-28T13:23:08.335Z,9.75
2024-02-28T13:25:34.970Z,9.75
2024-02-28T13:28:01.744Z,10.00
2024-02-28T13:30:28.903Z,10.13
2024-02-28T13:32:55.573Z,10.13
2024-02-28T13:35:22.435Z,10.13
2024-02-28T13:37:49.073Z,10.19
2024-02-28T13:40:15.885Z,10.63
2024-02-28T13:42:42.676Z,10.69
2024-02-28T13:45:10.645Z,10.69
2024-02-28T13:47:37.332Z,10.63
2024-02-28T13:50:04.377Z,10.44
2024-02-28T13:52:30.995Z,10.25
2024-02-28T13:54:57.764Z,10.13
2024-02-28T13:57:24.548Z,10.19
2024-02-28T13:59:54.582Z,10.13
2024-02-28T14:02:23.243Z,10.13
2024-02-28T14:04:50.207Z,10.00
2024-02-28T14:07:17.659Z,9.88
2024-02-28T14:09:46.039Z,9.75
2024-02-28T14:12:13.391Z,9.69
2024-02-28T14:14:40.755Z,9.56
2024-02-28T14:17:08.129Z,9.56
2024-02-28T14:19:36.360Z,9.50
2024-02-28T14:22:04.330Z,9.44
2024-02-28T14:24:31.302Z,9.44
2024-02-28T14:26:57.982Z,9.44
2024-02-28T14:29:24.606Z,9.50
2024-02-28T14:31:51.287Z,9.44
2024-02-28T14:34:17.943Z,9.38
2024-02-28T14:36:44.747Z,9.25
2024-02-28T14:39:16.241Z,9.19
2024-02-28T14:41:47.324Z,9.13
2024-02-28T14:44:14.533Z,9.13
2024-02-28T14:46:42.123Z,9.13
2024-02-28T14:49:08.837Z,9.19
2024-02-28T14:51:36.847Z,9.19
2024-02-28T14:54:04.728Z,9.31
2024-02-28T14:56:31.320Z,9.38
2024-02-28T14:58:58.025Z,9.25
2024-02-28T15:01:25.131Z,9.13
2024-02-28T15:03:52.737Z,9.13
2024-02-28T15:06:19.518Z,9.13
2024-02-28T15:08:46.139Z,9.13
2024-02-28T15:11:12.849Z,9.13
2024-02-28T15:13:39.647Z,9.13
2024-02-28T15:16:06.906Z,9.19
2024-02-28T15:18:33.968Z,9.25
2024-02-28T15:21:02.796Z,9.25
2024-02-28T15:23:32.271Z,9.25
2024-02-28T15:26:00.193Z,9.19
2024-02-28T15:28:28.132Z,9.19
2024-02-28T15:30:56.407Z,9.13
2024-02-28T15:33:23.597Z,9.00
2024-02-28T15:35:50.535Z,9.00
2024-02-28T15:38:17.215Z,8.94
2024-02-28T15:40:44.373Z,9.00
2024-02-28T15:43:11.640Z,8.94
2024-02-28T15:45:40.703Z,8.88
2024-02-28T15:48:07.963Z,8.81
2024-02-28T15:50:34.805Z,8.81
2024-02-28T15:53:01.709Z,8.75
2024-02-28T15:55:28.330Z,8.75
2024-02-28T15:57:56.681Z,8.75
2024-02-28T16:00:23.699Z,8.69
2024-02-28T16:02:50.423Z,8.75
2024-02-28T16:05:17.382Z,8.63
2024-02-28T16:07:45.219Z,8.63
2024-02-28T16:10:11.890Z,8.63
2024-02-28T16:12:38.731Z,8.56
2024-02-28T16:15:08.992Z,8.50
2024-02-28T16:17:35.749Z,8.50
2024-02-28T16:20:03.617Z,8.50
2024-02-28T16:22:30.646Z,8.50
2024-02-28T16:24:57.346Z,8.44
2024-02-28T16:27:24.179Z,8.38
2024-02-28T16:29:51.809Z,8.38
2024-02-28T16:32:18.526Z,8.25
2024-02-28T16:34:45.165Z,8.19
2024-02-28T16:37:11.925Z,8.13
2024-02-28T16:39:38.608Z,8.13
2024-02-28T16:42:05.575Z,8.00
2024-02-28T16:44:32.460Z,8.00
2024-02-28T16:46:59.377Z,8.00
2024-02-28T16:49:26.094Z,7.94
2024-02-28T16:51:52.710Z,7.94
2024-02-28T16:54:20.517Z,7.94
2024-02-28T16:56:47.869Z,7.94
2024-02-28T16:59:15.125Z,7.94
2024-02-28T17:01:42.924Z,7.94
2024-02-28T17:04:09.678Z,7.94
2024-02-28T17:06:36.568Z,8.00
2024-02-28T17:09:04.038Z,7.94
2024-02-28T17:11:30.792Z,7.94
2024-02-28T17:13:57.458Z,8.00
2024-02-28T17:16:24.146Z,7.94
2024-02-28T17:18:50.890Z,7.94
2024-02-28T17:21:17.659Z,7.94
2024-02-28T17:23:44.307Z,7.88
2024-02-28T17:26:12.440Z,7.94
2024-02-28T17:28:39.072Z,7.88
2024-02-28T17:31:05.723Z,7.94
2024-02-28T17:33:32.470Z,7.94
2024-02-28T17:35:59.158Z,7.94
2024-02-28T17:38:25.922Z,7.94
2024-02-28T17:40:52.563Z,7.94
2024-02-28T17:43:20.592Z,7.88
2024-02-28T17:45:47.416Z,7.88
2024-02-28T17:48:14.254Z,8.00
2024-02-28T17:50:40.949Z,7.94
2024-02-28T17:53:07.607Z,7.94
2024-02-28T17:55:34.296Z,7.94
2024-02-28T17:58:01.089Z,7.94
2024-02-28T18:00:28.333Z,7.94
2024-02-28T18:02:55.279Z,7.94
2024-02-28T18:05:24.519Z,7.94
2024-02-28T18:07:53.950Z,7.94
2024-02-28T18:10:21.121Z,7.88
2024-02-28T18:12:47.843Z,7.88
2024-02-28T18:15:14.712Z,7.88
2024-02-28T18:17:41.385Z,7.81
2024-02-28T18:20:08.867Z,7.81
2024-02-28T18:22:36.331Z,7.81
2024-02-28T18:25:04.345Z,7.81
2024-02-28T18:27:31.228Z,7.81
2024-02-28T18:29:57.914Z,7.81
2024-02-28T18:32:24.779Z,7.81
2024-02-28T18:34:53.436Z,7.75
2024-02-28T18:37:20.514Z,7.75
2024-02-28T18:39:47.332Z,7.75
2024-02-28T18:42:14.023Z,7.75
2024-02-28T18:44:40.726Z,7.81
2024-02-28T18:47:07.464Z,7.81
2024-02-28T18:49:34.290Z,7.81
2024-02-28T18:52:01.478Z,7.75
2024-02-28T18:54:29.226Z,7.75
2024-02-28T18:56:56.056Z,7.75
2024-02-28T18:59:23.196Z,7.75
2024-02-28T19:01:51.198Z,7.75
2024-02-28T19:04:18.231Z,7.81
2024-02-28T19:06:46.156Z,7.81
2024-02-28T19:09:12.896Z,7.75
2024-02-28T19:11:39.628Z,7.81
2024-02-28T19:14:06.395Z,7.88
2024-02-28T19:16:33.095Z,7.81
2024-02-28T19:18:59.747Z,7.81
2024-02-28T19:21:26.479Z,7.81
2024-02-28T19:23:55.402Z,7.81
2024-02-28T19:26:24.578Z,7.81
2024-02-28T19:28:51.225Z,7.88
2024-02-28T19:31:18.147Z,7.94
2024-02-28T19:33:44.894Z,7.88
2024-02-28T19:36:11.635Z,7.88
2024-02-28T19:38:38.315Z,7.88
2024-02-28T19:41:05.174Z,7.88
2024-02-28T19:43:34.107Z,7.88
2024-02-28T19:46:01.594Z,7.88
2024-02-28T19:48:28.596Z,7.81
2024-02-28T19:50:55.447Z,7.81
2024-02-28T19:53:24.244Z,7.81
2024-02-28T19:55:50.879Z,7.81
2024-02-28T19:58:17.864Z,7.81
2024-02-28T20:00:44.554Z,7.75
2024-02-28T20:03:11.381Z,7.75
2024-02-28T20:05:38.018Z,7.69
2024-02-28T20:08:05.108Z,7.63
2024-02-28T20:10:34.888Z,7.50
2024-02-28T20:13:02.851Z,7.38
2024-02-28T20:15:29.680Z,7.31
2024-02-28T20:17:57.307Z,7.25
2024-02-28T20:20:24.636Z,7.13
2024-02-28T20:22:51.411Z,7.06
2024-02-28T20:25:18.125Z,7.00
2024-02-28T20:27:45.047Z,6.94
2024-02-28T20:30:13.255Z,6.94
2024-02-28T20:32:39.942Z,6.94
2024-02-28T20:35:08.690Z,6.88
2024-02-28T20:37:35.421Z,6.88
2024-02-28T20:40:04.403Z,6.88
2024-02-28T20:42:31.086Z,6.88
2024-02-28T20:44:57.861Z,6.81
2024-02-28T20:47:24.463Z,6.75
2024-02-28T20:49:51.336Z,6.75
2024-02-28T20:52:17.977Z,6.69
2024-02-28T20:54:46.906Z,6.69
2024-02-28T20:57:17.061Z,6.69
2024-02-28T20:59:44.197Z,6.69
2024-02-28T21:02:11.267Z,6.63
2024-02-28T21:04:39.987Z,6.50
2024-02-28T21:07:06.661Z,6.56
2024-02-28T21:09:33.763Z,6.44
2024-02-28T21:12:06.369Z,6.50
2024-02-28T21:14:33.050Z,6.38
2024-02-28T21:16:59.773Z,6.38
2024-02-28T21:19:26.820Z,6.31
2024-02-28T21:21:56.318Z,6.31
2024-02-28T21:24:22.945Z,6.38
2024-02-28T21:26:49.614Z,6.31
2024-02-28T21:29:16.714Z,6.31
2024-02-28T21:31:46.434Z,6.31
2024-02-28T21:34:13.156Z,6.19
2024-02-28T21:36:40.094Z,6.25
2024-02-28T21:39:09.995Z,6.19
2024-02-28T21:41:36.792Z,6.13
2024-02-28T21:44:03.610Z,6.06
2024-02-28T21:46:30.284Z,5.94
2024-02-28T21:49:02.999Z,6.00
2024-02-28T21:51:36.570Z,6.13
2024-02-28T21:54:03.352Z,6.06
2024-02-28T21:56:29.984Z,6.06
2024-02-28T21:58:56.858Z,6.00
2024-02-28T22:01:26.406Z,6.00
2024-02-28T22:03:54.010Z,6.00
2024-02-28T22:06:20.782Z,5.94
2024-02-28T22:08:47.411Z,5.94
2024-02-28T22:11:14.142Z,5.94
2024-02-28T22:13:40.787Z,5.94
2024-02-28T22:16:07.525Z,5.88
2024-02-28T22:18:34.323Z,5.94
2024-02-28T22:21:00.980Z,5.94
2024-02-28T22:23:29.864Z,5.94
2024-02-28T22:25:58.836Z,5.94
2024-02-28T22:28:25.498Z,6.00
2024-02-28T22:30:54.622Z,5.88
2024-02-28T22:33:21.551Z,5.94
2024-02-28T22:35:48.187Z,5.88
2024-02-28T22:38:14.866Z,5.81
2024-02-28T22:40:41.489Z,5.75
2024-02-28T22:43:08.172Z,5.75
2024-02-28T22:45:34.993Z,5.75
2024-02-28T22:48:01.735Z,5.75
2024-02-28T22:50:28.483Z,5.75
2024-02-28T22:52:55.144Z,5.69
2024-02-28T22:55:22.017Z,5.63
2024-02-28T22:57:48.853Z,5.63
2024-02-28T23:00:31.979Z,5.63
2024-02-28T23:03:00.277Z,5.69
2024-02-28T23:05:29.127Z,5.63
2024-02-28T23:07:56.328Z,5.56
2024-02-28T23:10:24.764Z,5.50
2024-02-28T23:12:52.717Z,5.44
2024-02-28T23:15:23.475Z,5.44
2024-02-28T23:17:52.864Z,5.44
2024-02-28T23:20:25.485Z,5.50
2024-02-28T23:22:53.415Z,5.44
2024-02-28T23:25:21.476Z,5.44
2024-02-28T23:27:50.154Z,5.50
2024-02-28T23:30:17.377Z,5.56
2024-02-28T23:32:44.219Z,5.56
2024-02-28T23:35:11.062Z,5.56
2024-02-28T23:37:38.274Z,5.63
2024-02-28T23:40:06.916Z,5.69
2024-02-28T23:42:34.811Z,5.75
2024-02-28T23:45:01.865Z,5.81
2024-02-28T23:47:28.602Z,5.75
2024-02-28T23:49:55.522Z,5.81
2024-02-28T23:52:22.282Z,5.88
2024-02-28T23:54:48.984Z,5.88
2024-02-28T23:57:15.598Z,5.94
2024-02-28T23:59:43.078Z,6.00
